createdAt,value
2019-03-05T00:00:14.678Z,2.20
2019-03-05T00:02:46.332Z,2.17
2019-03-05T00:05:16.427Z,1.90
2019-03-05T00:07:46.585Z,1.73
2019-03-05T00:10:17.253Z,2.73
2019-03-05T00:12:47.313Z,2.00
2019-03-05T00:15:19.641Z,1.57
2019-03-05T00:17:49.749Z,1.90
2019-03-05T00:20:20.129Z,1.80
2019-03-05T00:22:50.210Z,1.70
2019-03-05T00:25:20.654Z,1.93
2019-03-05T00:28:21.843Z,1.90
2019-03-05T00:30:53.818Z,2.17
2019-03-05T00:33:29.642Z,2.43
2019-03-05T00:36:20.212Z,2.00
2019-03-05T00:39:13.298Z,2.03
2019-03-05T00:41:53.312Z,2.17
2019-03-05T00:44:41.945Z,2.07
2019-03-05T00:47:21.469Z,2.37
2019-03-05T00:50:19.900Z,2.47
2019-03-05T00:53:04.564Z,2.00
2019-03-05T00:55:40.946Z,2.87
2019-03-05T00:58:31.579Z,2.10
2019-03-05T01:01:10.725Z,2.10
2019-03-05T01:03:43.871Z,1.43
2019-03-05T01:06:24.178Z,1.90
2019-03-05T01:08:55.147Z,2.17
2019-03-05T01:11:25.602Z,2.83
2019-03-05T01:13:56.753Z,2.00
2019-03-05T01:16:30.311Z,2.37
2019-03-05T01:19:00.534Z,1.90
2019-03-05T01:21:30.615Z,2.90
2019-03-05T01:24:00.793Z,1.77
2019-03-05T01:26:30.777Z,1.77
2019-03-05T01:29:00.734Z,1.97
2019-03-05T01:31:49.973Z,1.75
2019-03-05T01:34:37.276Z,1.53
2019-03-05T01:37:07.661Z,1.77
2019-03-05T01:39:55.644Z,2.70
2019-03-05T01:42:25.794Z,1.70
2019-03-05T01:44:55.786Z,2.37
2019-03-05T01:47:25.855Z,1.97
2019-03-05T01:49:55.858Z,1.47
2019-03-05T01:52:25.870Z,2.60
2019-03-05T01:54:55.933Z,2.20
2019-03-05T01:57:25.892Z,2.17
2019-03-05T01:59:55.936Z,2.10
2019-03-05T02:02:25.902Z,3.10
2019-03-05T02:04:56.080Z,2.63
2019-03-05T02:07:26.192Z,2.23
2019-03-05T02:09:56.531Z,2.10
2019-03-05T02:12:26.501Z,2.00
2019-03-05T02:14:56.723Z,2.20
2019-03-05T02:17:27.690Z,2.30
2019-03-05T02:19:57.706Z,1.80
2019-03-05T02:22:32.153Z,1.93
2019-03-05T02:25:13.451Z,2.80
2019-03-05T02:27:58.142Z,1.97
2019-03-05T02:30:31.675Z,2.37
2019-03-05T02:33:09.684Z,2.23
2019-03-05T02:35:45.483Z,2.27
2019-03-05T02:38:19.866Z,3.07
2019-03-05T02:40:56.692Z,2.40
2019-03-05T02:43:36.265Z,2.00
2019-03-05T02:46:14.012Z,2.87
2019-03-05T02:49:07.919Z,2.07
2019-03-05T02:51:51.885Z,2.40
2019-03-05T02:54:44.042Z,2.33
2019-03-05T02:57:13.374Z,1.73
2019-03-05T02:59:43.439Z,1.90
2019-03-05T03:02:32.456Z,1.90
2019-03-05T03:05:11.482Z,1.53
2019-03-05T03:07:41.748Z,1.47
2019-03-05T03:10:16.278Z,1.87
2019-03-05T03:12:47.777Z,1.33
2019-03-05T03:15:18.626Z,1.20
2019-03-05T03:17:49.202Z,1.57
2019-03-05T03:20:19.975Z,1.93
2019-03-05T03:22:50.165Z,1.93
2019-03-05T03:25:21.079Z,2.23
2019-03-05T03:27:51.363Z,1.57
2019-03-05T03:30:22.352Z,1.43
2019-03-05T03:32:52.577Z,1.90
2019-03-05T03:35:22.635Z,2.10
2019-03-05T03:37:53.723Z,1.80
2019-03-05T03:40:24.211Z,3.40
2019-03-05T03:42:54.377Z,2.30
2019-03-05T03:45:25.234Z,2.30
2019-03-05T03:47:55.313Z,1.60
2019-03-05T03:50:25.404Z,2.40
2019-03-05T03:52:56.465Z,1.73
2019-03-05T03:55:27.681Z,2.00
2019-03-05T03:57:57.747Z,2.27
2019-03-05T04:00:27.798Z,2.17
2019-03-05T04:02:57.929Z,2.07
2019-03-05T04:05:28.003Z,2.23
2019-03-05T04:07:58.267Z,2.10
2019-03-05T04:10:28.357Z,1.83
2019-03-05T04:12:58.503Z,1.87
2019-03-05T04:15:28.512Z,1.60
2019-03-05T04:17:58.689Z,2.00
2019-03-05T04:20:32.131Z,2.23
2019-03-05T04:23:02.470Z,1.40
2019-03-05T04:25:33.547Z,1.90
2019-03-05T04:28:03.713Z,1.70
2019-03-05T04:30:33.806Z,1.80
2019-03-05T04:33:04.234Z,1.15
2019-03-05T04:35:34.235Z,1.50
2019-03-05T04:38:04.380Z,1.55
2019-03-05T04:40:36.026Z,1.93
2019-03-05T04:43:06.111Z,1.57
2019-03-05T04:45:42.273Z,1.70
2019-03-05T04:48:12.357Z,1.27
2019-03-05T04:50:51.874Z,1.70
2019-03-05T04:53:21.854Z,1.63
2019-03-05T04:55:51.841Z,1.40
2019-03-05T04:58:21.845Z,1.23
2019-03-05T05:00:51.972Z,1.70
2019-03-05T05:03:22.194Z,1.70
2019-03-05T05:05:52.273Z,2.20
2019-03-05T05:08:22.364Z,1.53
2019-03-05T05:10:52.368Z,1.20
2019-03-05T05:13:23.461Z,1.47
2019-03-05T05:15:53.582Z,1.80
2019-03-05T05:18:24.638Z,1.60
2019-03-05T05:20:54.631Z,1.60
2019-03-05T05:23:24.595Z,1.10
2019-03-05T05:25:54.587Z,1.20
2019-03-05T05:28:24.597Z,1.13
2019-03-05T05:30:54.593Z,1.00
2019-03-05T05:33:24.712Z,1.43
2019-03-05T05:35:54.877Z,1.60
2019-03-05T05:38:24.927Z,1.73
2019-03-05T05:40:55.046Z,1.20
2019-03-05T05:43:26.182Z,1.43
2019-03-05T05:45:56.296Z,1.70
2019-03-05T05:48:26.339Z,1.30
2019-03-05T05:50:56.460Z,1.00
2019-03-05T05:53:26.567Z,1.80
2019-03-05T05:55:56.585Z,0.90
2019-03-05T05:58:26.977Z,1.70
2019-03-05T06:01:00.059Z,1.20
2019-03-05T06:03:30.125Z,1.43
2019-03-05T06:06:00.131Z,1.30
2019-03-05T06:08:30.180Z,1.47
2019-03-05T06:11:00.214Z,1.50
2019-03-05T06:13:30.444Z,1.70
2019-03-05T06:16:00.661Z,1.27
2019-03-05T06:18:30.828Z,1.00
2019-03-05T06:21:00.872Z,1.20
2019-03-05T06:23:30.863Z,1.77
2019-03-05T06:26:01.006Z,1.07
2019-03-05T06:28:31.395Z,1.00
2019-03-05T06:31:02.541Z,1.10
2019-03-05T06:33:32.714Z,1.43
2019-03-05T06:36:03.503Z,1.30
2019-03-05T06:38:33.525Z,1.17
2019-03-05T06:41:04.414Z,1.00
2019-03-05T06:43:34.524Z,1.17
2019-03-05T06:46:04.587Z,1.83
2019-03-05T06:48:35.079Z,0.97
2019-03-05T06:51:05.069Z,1.47
2019-03-05T06:53:35.186Z,0.73
2019-03-05T06:56:05.678Z,1.40
2019-03-05T06:58:35.738Z,1.20
2019-03-05T07:01:05.924Z,1.33
2019-03-05T07:03:35.974Z,1.07
2019-03-05T07:06:24.219Z,1.10
2019-03-05T07:09:04.640Z,1.83
2019-03-05T07:11:50.725Z,1.10
2019-03-05T07:14:26.708Z,1.53
2019-03-05T07:17:02.752Z,1.50
2019-03-05T07:19:57.961Z,1.13
2019-03-05T07:22:30.201Z,1.37
2019-03-05T07:25:00.341Z,1.23
2019-03-05T07:27:32.198Z,1.10
2019-03-05T07:30:08.056Z,1.13
2019-03-05T07:32:38.200Z,1.70
2019-03-05T07:35:08.507Z,1.27
2019-03-05T07:37:38.612Z,1.20
2019-03-05T07:40:08.868Z,0.63
2019-03-05T07:42:38.873Z,1.07
2019-03-05T07:45:09.070Z,1.13
2019-03-05T07:47:40.214Z,1.40
2019-03-05T07:50:10.276Z,1.47
2019-03-05T07:52:40.382Z,0.70
2019-03-05T07:55:13.785Z,1.27
2019-03-05T07:57:43.355Z,1.00
2019-03-05T08:00:15.155Z,1.57
2019-03-05T08:02:45.344Z,1.80
2019-03-05T08:05:17.829Z,1.20
2019-03-05T08:07:48.133Z,1.40
2019-03-05T08:10:22.621Z,1.67
2019-03-05T08:13:01.068Z,1.43
2019-03-05T08:15:43.687Z,1.53
2019-03-05T08:18:13.928Z,2.00
2019-03-05T08:20:44.255Z,2.70
2019-03-05T08:23:14.335Z,1.63
2019-03-05T08:25:44.333Z,2.10
2019-03-05T08:28:14.482Z,1.83
2019-03-05T08:30:44.553Z,1.47
2019-03-05T08:33:14.743Z,2.13
2019-03-05T08:35:44.964Z,2.40
2019-03-05T08:38:15.229Z,1.80
2019-03-05T08:40:45.337Z,1.73
2019-03-05T08:43:18.335Z,2.03
2019-03-05T08:45:48.479Z,1.77
2019-03-05T08:48:18.475Z,1.93
2019-03-05T08:50:49.139Z,1.70
2019-03-05T08:53:19.231Z,1.77
2019-03-05T08:55:49.706Z,1.90
2019-03-05T08:58:20.487Z,1.80
2019-03-05T09:00:51.551Z,1.97
2019-03-05T09:03:21.662Z,1.73
2019-03-05T09:05:51.729Z,2.30
2019-03-05T09:08:21.933Z,1.63
2019-03-05T09:10:52.309Z,1.60
2019-03-05T09:13:32.256Z,1.73
2019-03-05T09:15:54.243Z,2.00
2019-03-05T09:18:24.566Z,1.90
2019-03-05T09:20:54.746Z,1.97
2019-03-05T09:23:25.145Z,2.37
2019-03-05T09:25:55.365Z,1.73
2019-03-05T09:28:25.585Z,2.00
2019-03-05T09:30:55.816Z,2.13
2019-03-05T09:33:26.737Z,1.77
2019-03-05T09:35:57.009Z,1.47
2019-03-05T09:38:27.090Z,1.90
2019-03-05T09:43:58.577Z,1.90
2019-03-05T09:46:28.645Z,2.03
2019-03-05T09:48:58.749Z,1.90
2019-03-05T09:51:28.911Z,1.50
2019-03-05T09:53:59.173Z,1.80
2019-03-05T09:56:29.794Z,1.50
2019-03-05T09:58:59.937Z,2.10
2019-03-05T10:01:29.974Z,1.87
2019-03-05T10:04:00.099Z,2.17
2019-03-05T10:06:30.176Z,2.00
2019-03-05T10:09:00.161Z,1.70
2019-03-05T10:11:31.888Z,2.00
2019-03-05T10:14:02.057Z,1.57
2019-03-05T10:16:32.141Z,2.03
2019-03-05T10:19:02.190Z,1.60
2019-03-05T10:21:32.425Z,1.67
2019-03-05T10:24:10.493Z,1.87
2019-03-05T10:26:34.368Z,2.03
2019-03-05T10:29:05.907Z,1.93
2019-03-05T10:31:36.074Z,1.53
2019-03-05T10:34:06.265Z,2.00
2019-03-05T10:36:36.498Z,1.60
2019-03-05T10:39:29.923Z,1.60
2019-03-05T10:41:52.016Z,2.07
2019-03-05T10:44:22.097Z,2.00
2019-03-05T10:46:52.137Z,2.00
2019-03-05T10:49:22.653Z,1.90
2019-03-05T10:51:52.954Z,1.53
2019-03-05T10:54:23.249Z,1.50
2019-03-05T10:56:53.488Z,2.43
2019-03-05T10:59:23.535Z,1.80
2019-03-05T11:01:53.859Z,1.77
2019-03-05T11:04:23.930Z,1.80
2019-03-05T11:06:53.991Z,1.83
2019-03-05T11:09:24.214Z,1.70
2019-03-05T11:11:54.187Z,1.90
2019-03-05T11:14:24.381Z,1.80
2019-03-05T11:16:55.028Z,2.03
2019-03-05T11:19:25.427Z,1.70
2019-03-05T11:21:55.753Z,1.87
2019-03-05T11:24:26.165Z,1.20
2019-03-05T11:26:57.417Z,1.70
2019-03-05T11:29:27.467Z,1.27
2019-03-05T11:31:57.570Z,1.37
2019-03-05T11:34:27.583Z,1.90
2019-03-05T11:36:57.826Z,1.60
2019-03-05T11:39:28.142Z,1.33
2019-03-05T11:41:58.148Z,1.47
2019-03-05T11:44:28.217Z,1.40
2019-03-05T11:46:58.205Z,1.57
2019-03-05T11:49:28.219Z,2.03
2019-03-05T11:51:58.528Z,1.57
2019-03-05T11:54:30.809Z,1.80
2019-03-05T11:57:01.669Z,1.10
2019-03-05T11:59:32.006Z,1.20
2019-03-05T12:02:02.253Z,1.40
2019-03-05T12:04:32.399Z,1.40
2019-03-05T12:07:02.359Z,1.40
2019-03-05T12:09:33.697Z,1.37
2019-03-05T12:12:04.688Z,1.80
2019-03-05T12:14:34.647Z,1.13
2019-03-05T12:17:05.463Z,1.57
2019-03-05T12:19:36.604Z,1.27
2019-03-05T12:22:06.838Z,1.13
2019-03-05T12:24:36.888Z,1.50
2019-03-05T12:27:06.952Z,0.80
2019-03-05T12:29:38.068Z,1.20
2019-03-05T12:32:08.155Z,1.60
2019-03-05T12:34:38.248Z,1.20
2019-03-05T12:37:08.284Z,1.33
2019-03-05T12:39:38.501Z,1.07
2019-03-05T12:42:08.584Z,1.20
2019-03-05T12:44:38.612Z,1.20
2019-03-05T12:47:08.665Z,1.43
2019-03-05T12:49:38.667Z,1.63
2019-03-05T12:52:09.556Z,1.40
2019-03-05T12:54:40.118Z,1.03
2019-03-05T12:57:10.482Z,0.97
2019-03-05T12:59:40.657Z,1.47
2019-03-05T13:02:10.964Z,1.17
2019-03-05T13:04:41.235Z,1.40
2019-03-05T13:07:14.142Z,1.40
2019-03-05T13:09:45.354Z,0.80
2019-03-05T13:12:15.025Z,0.80
2019-03-05T13:14:45.222Z,1.40
2019-03-05T13:17:15.330Z,0.90
2019-03-05T13:19:47.980Z,1.00
2019-03-05T13:22:17.335Z,1.13
2019-03-05T13:24:50.208Z,1.13
2019-03-05T13:27:22.770Z,1.10
2019-03-05T13:29:51.824Z,0.60
2019-03-05T13:32:22.004Z,1.40
2019-03-05T13:34:52.183Z,0.80
2019-03-05T13:37:24.973Z,0.93
2019-03-05T13:39:54.962Z,1.60
2019-03-05T13:42:29.108Z,0.83
2019-03-05T13:44:58.773Z,1.33
2019-03-05T13:47:28.965Z,1.77
2019-03-05T13:50:18.185Z,1.27
2019-03-05T13:53:14.945Z,1.17
2019-03-05T13:56:05.754Z,0.90
2019-03-05T13:59:04.333Z,0.93
2019-03-05T14:01:34.827Z,1.03
2019-03-05T14:04:06.854Z,1.27
2019-03-05T14:07:00.515Z,0.90
2019-03-05T14:09:30.121Z,1.10
2019-03-05T14:12:00.309Z,1.20
2019-03-05T14:14:31.051Z,1.40
2019-03-05T14:17:11.361Z,1.20
2019-03-05T14:19:41.454Z,0.93
2019-03-05T14:22:11.630Z,1.20
2019-03-05T14:24:41.736Z,1.10
2019-03-05T14:27:12.231Z,1.30
2019-03-05T14:29:42.382Z,1.10
2019-03-05T14:32:12.714Z,1.37
2019-03-05T14:34:45.331Z,1.07
2019-03-05T14:37:15.574Z,1.10
2019-03-05T14:39:46.191Z,1.20
2019-03-05T14:42:16.345Z,1.80
2019-03-05T14:44:46.438Z,1.80
2019-03-05T14:47:16.603Z,1.30
2019-03-05T14:49:46.791Z,1.33
2019-03-05T14:52:16.910Z,1.67
2019-03-05T14:54:47.141Z,1.70
2019-03-05T14:57:19.198Z,1.33
2019-03-05T14:59:51.677Z,1.23
2019-03-05T15:02:21.754Z,1.10
2019-03-05T15:04:51.858Z,1.20
2019-03-05T15:07:22.087Z,1.10
2019-03-05T15:09:53.413Z,1.13
2019-03-05T15:12:23.793Z,1.03
2019-03-05T15:14:54.769Z,1.13
2019-03-05T15:17:26.027Z,0.93
2019-03-05T15:19:57.773Z,1.13
2019-03-05T15:22:27.968Z,1.00
2019-03-05T15:24:58.348Z,1.23
2019-03-05T15:27:28.803Z,1.20
2019-03-05T15:29:59.145Z,0.90
2019-03-05T15:32:29.401Z,1.10
2019-03-05T15:34:59.902Z,0.93
2019-03-05T15:37:29.945Z,0.90
2019-03-05T15:40:00.709Z,1.20
2019-03-05T15:42:31.488Z,0.87
2019-03-05T15:45:02.047Z,0.90
2019-03-05T15:47:32.401Z,1.00
2019-03-05T15:50:02.483Z,1.37
2019-03-05T15:52:32.800Z,1.40
2019-03-05T15:55:03.012Z,0.93
2019-03-05T15:57:33.226Z,1.07
2019-03-05T16:00:04.543Z,0.60
2019-03-05T16:02:34.762Z,1.20
2019-03-05T16:05:11.985Z,1.20
2019-03-05T16:07:36.920Z,0.80
2019-03-05T16:10:07.788Z,1.17
2019-03-05T16:12:37.856Z,0.67
2019-03-05T16:15:09.131Z,1.10
2019-03-05T16:17:41.246Z,0.73
2019-03-05T16:20:12.199Z,0.77
2019-03-05T16:22:42.406Z,1.13
2019-03-05T16:25:13.822Z,1.47
2019-03-05T16:27:44.992Z,1.10
2019-03-05T16:30:34.637Z,1.03
2019-03-05T16:33:17.032Z,0.77
2019-03-05T16:36:14.336Z,1.33
2019-03-05T16:39:02.744Z,0.60
2019-03-05T16:41:45.763Z,1.43
2019-03-05T16:44:37.567Z,1.20
2019-03-05T16:47:21.887Z,1.00
2019-03-05T16:50:20.540Z,1.07
2019-03-05T16:53:23.185Z,0.70
2019-03-05T16:56:10.112Z,0.97
2019-03-05T16:58:59.449Z,1.90
2019-03-05T17:01:47.769Z,0.80
2019-03-05T17:04:40.127Z,0.97
2019-03-05T17:07:42.604Z,1.00
2019-03-05T17:10:33.887Z,0.90
2019-03-05T17:13:06.461Z,0.50
2019-03-05T17:15:36.785Z,0.90
2019-03-05T17:18:07.168Z,1.20
2019-03-05T17:20:37.318Z,1.30
2019-03-05T17:23:07.458Z,0.70
2019-03-05T17:25:37.541Z,3.00
2019-03-05T17:28:07.635Z,7.87
2019-03-05T17:30:38.198Z,7.93
2019-03-05T17:33:08.787Z,3.43
2019-03-05T17:35:38.995Z,5.53
2019-03-05T17:38:09.909Z,4.73
2019-03-05T17:40:41.592Z,4.40
2019-03-05T17:43:11.746Z,4.13
2019-03-05T17:45:42.042Z,4.80
2019-03-05T17:48:12.560Z,2.93
2019-03-05T17:50:44.221Z,3.23
2019-03-05T17:53:16.289Z,2.20
2019-03-05T17:55:46.899Z,3.60
2019-03-05T17:58:17.146Z,3.23
2019-03-05T18:00:48.397Z,4.37
2019-03-05T18:03:18.759Z,2.60
2019-03-05T18:05:48.988Z,3.30
2019-03-05T18:08:20.161Z,3.03
2019-03-05T18:10:53.073Z,3.13
2019-03-05T18:13:23.747Z,2.07
2019-03-05T18:15:54.385Z,3.03
2019-03-05T18:18:24.407Z,3.13
2019-03-05T18:20:56.863Z,2.93
2019-03-05T18:23:26.967Z,2.83
2019-03-05T18:25:57.373Z,2.47
2019-03-05T18:28:34.256Z,3.10
2019-03-05T18:31:04.954Z,2.93
2019-03-05T18:33:35.601Z,2.60
2019-03-05T18:36:09.260Z,2.67
2019-03-05T18:38:39.514Z,2.20
2019-03-05T18:41:11.696Z,2.67
2019-03-05T18:43:47.036Z,2.70
2019-03-05T18:46:17.560Z,2.90
2019-03-05T18:48:49.576Z,2.77
2019-03-05T18:51:19.589Z,2.67
2019-03-05T18:53:50.062Z,2.60
2019-03-05T19:02:28.631Z,2.30
2019-03-05T19:05:01.760Z,2.17
2019-03-05T19:07:32.037Z,2.50
2019-03-05T19:10:02.165Z,2.10
2019-03-05T19:12:34.366Z,2.20
2019-03-05T19:15:05.369Z,2.13
2019-03-05T19:24:11.333Z,1.93
2019-03-05T19:26:41.502Z,2.40
2019-03-05T19:29:11.846Z,1.77
2019-03-05T19:31:42.315Z,1.80
2019-03-05T19:34:13.615Z,1.90
2019-03-05T19:36:44.402Z,2.03
2019-03-05T19:39:14.827Z,1.93
2019-03-05T19:41:55.623Z,1.90
2019-03-05T19:44:19.691Z,1.60
2019-03-05T19:46:49.680Z,1.90
2019-03-05T19:49:19.858Z,1.90
2019-03-05T19:51:50.313Z,1.93
2019-03-05T19:54:20.558Z,1.40
2019-03-05T19:56:50.641Z,2.43
2019-03-05T19:59:20.672Z,1.90
2019-03-05T20:01:50.850Z,1.40
2019-03-05T20:04:21.020Z,1.60
2019-03-05T20:06:51.098Z,1.47
2019-03-05T20:09:23.557Z,1.73
2019-03-05T20:11:56.299Z,1.50
2019-03-05T20:14:26.381Z,1.73
2019-03-05T20:17:04.302Z,1.47
2019-03-05T20:19:35.539Z,1.57
2019-03-05T20:31:07.728Z,1.87
2019-03-05T20:33:39.570Z,1.47
2019-03-05T20:36:10.201Z,1.77
2019-03-05T20:38:41.855Z,1.60
2019-03-05T20:41:12.248Z,1.62
2019-03-05T20:43:42.910Z,1.63
2019-03-05T20:46:15.280Z,2.00
2019-03-05T20:48:45.812Z,1.37
2019-03-05T20:51:16.072Z,1.43
2019-03-05T20:53:48.373Z,1.37
2019-03-05T20:56:19.526Z,2.20
2019-03-05T20:58:58.427Z,1.73
2019-03-05T21:01:23.906Z,1.37
2019-03-05T21:03:54.228Z,1.50
2019-03-05T21:06:30.486Z,1.30
2019-03-05T21:09:02.806Z,2.00
2019-03-05T21:11:34.695Z,1.77
2019-03-05T21:14:04.852Z,1.40
2019-03-05T21:16:35.112Z,1.33
2019-03-05T21:19:05.297Z,1.40
2019-03-05T21:21:35.584Z,1.30
2019-03-05T21:24:05.960Z,1.70
2019-03-05T21:26:36.576Z,1.60
2019-03-05T21:29:06.936Z,1.77
2019-03-05T21:31:37.022Z,1.40
2019-03-05T21:34:08.368Z,1.50
2019-03-05T21:36:38.694Z,1.20
2019-03-05T21:39:12.508Z,1.50
2019-03-05T21:41:43.140Z,1.33
2019-03-05T21:44:13.370Z,1.33
2019-03-05T21:46:43.568Z,1.30
2019-03-05T21:49:15.057Z,1.53
2019-03-05T21:51:45.287Z,1.43
2019-03-05T21:54:15.398Z,1.40
2019-03-05T21:56:57.565Z,2.80
2019-03-05T21:59:29.656Z,1.53
2019-03-05T22:02:03.262Z,1.77
2019-03-05T22:04:33.967Z,1.10
2019-03-05T22:13:43.871Z,1.33
2019-03-05T22:16:16.447Z,1.50
2019-03-05T22:19:08.101Z,1.47
2019-03-05T22:21:27.316Z,1.93
2019-03-05T22:23:58.329Z,1.23
2019-03-05T22:26:28.878Z,2.03
2019-03-05T22:28:59.315Z,1.90
2019-03-05T22:31:31.440Z,2.43
2019-03-05T22:34:03.204Z,1.40
2019-03-05T22:36:34.211Z,1.50
2019-03-05T22:39:07.308Z,1.63
2019-03-05T22:41:39.534Z,1.90
2019-03-05T22:44:14.205Z,2.00
2019-03-05T22:46:48.062Z,3.50
2019-03-05T22:49:18.122Z,2.50
2019-03-05T22:51:48.225Z,2.07
2019-03-05T22:54:18.688Z,1.57
2019-03-05T22:56:49.203Z,1.73
2019-03-05T22:59:20.254Z,2.10
2019-03-05T23:01:50.392Z,2.50
2019-03-05T23:04:27.413Z,1.87
2019-03-05T23:07:00.966Z,2.40
2019-03-05T23:09:33.053Z,3.93
2019-03-05T23:12:04.099Z,3.83
2019-03-05T23:14:36.025Z,2.47
2019-03-05T23:17:06.520Z,3.17
2019-03-05T23:19:36.925Z,2.50
2019-03-05T23:22:06.970Z,2.70
2019-03-05T23:24:37.119Z,4.27
2019-03-05T23:27:07.646Z,3.03
2019-03-05T23:29:42.201Z,2.97
2019-03-05T23:32:12.469Z,4.22
2019-03-05T23:34:42.654Z,3.03
2019-03-05T23:37:12.722Z,3.90
2019-03-05T23:39:43.248Z,3.10
2019-03-05T23:42:13.453Z,3.63
2019-03-05T23:44:45.460Z,4.50
2019-03-05T23:47:17.652Z,4.00
2019-03-05T23:49:47.778Z,2.87
2019-03-05T23:52:17.936Z,3.97
2019-03-05T23:54:48.134Z,3.73
2019-03-05T23:57:18.118Z,4.00
2019-03-05T23:59:48.232Z,4.13
